createdAt,value
2022-11-14T00:01:49.111Z,41.60
2022-11-14T00:04:39.407Z,42.00
2022-11-14T00:07:33.550Z,38.00
2022-11-14T00:10:24.089Z,32.70
2022-11-14T00:13:14.946Z,37.80
2022-11-14T00:16:05.272Z,36.60
2022-11-14T00:18:55.212Z,37.60
2022-11-14T00:21:46.086Z,32.20
2022-11-14T00:24:35.424Z,28.40
2022-11-14T00:27:25.084Z,37.60
2022-11-14T00:30:16.678Z,31.30
2022-11-14T00:33:06.665Z,25.70
2022-11-14T00:35:59.756Z,23.70
2022-11-14T00:38:55.613Z,30.90
2022-11-14T00:41:44.347Z,33.10
2022-11-14T00:44:33.304Z,33.00
2022-11-14T00:47:24.256Z,34.20
2022-11-14T00:50:15.047Z,30.70
2022-11-14T00:53:05.123Z,31.90
2022-11-14T00:55:55.387Z,34.90
2022-11-14T00:58:45.413Z,33.00
2022-11-14T01:01:37.585Z,36.00
2022-11-14T01:04:26.675Z,41.40
2022-11-14T01:07:16.203Z,47.80
2022-11-14T01:10:07.390Z,48.20
2022-11-14T01:12:58.587Z,47.80
2022-11-14T01:15:51.572Z,41.90
2022-11-14T01:18:43.240Z,41.10
2022-11-14T01:21:33.466Z,43.80
2022-11-14T01:24:24.864Z,51.10
2022-11-14T01:27:14.868Z,51.10
2022-11-14T01:30:04.571Z,52.20
2022-11-14T01:36:02.502Z,51.00
2022-11-14T01:38:56.274Z,50.40
2022-11-14T01:41:46.508Z,47.40
2022-11-14T01:44:56.588Z,44.10
2022-11-14T01:47:46.008Z,48.20
2022-11-14T01:50:36.512Z,52.00
2022-11-14T01:53:26.538Z,54.00
2022-11-14T01:56:20.259Z,49.70
2022-11-14T01:59:14.322Z,55.30
2022-11-14T02:02:15.528Z,50.20
2022-11-14T02:05:09.565Z,50.70
2022-11-14T02:08:00.644Z,48.10
2022-11-14T02:10:49.315Z,46.30
2022-11-14T02:13:41.394Z,49.00
2022-11-14T02:16:29.283Z,49.60
2022-11-14T02:19:21.157Z,48.90
2022-11-14T02:22:11.552Z,51.50
2022-11-14T02:27:52.408Z,47.20
2022-11-14T02:30:44.893Z,49.80
2022-11-14T02:33:35.003Z,45.90
2022-11-14T02:36:26.307Z,55.40
2022-11-14T02:39:14.849Z,50.80
2022-11-14T02:42:05.594Z,53.30
2022-11-14T02:44:54.149Z,47.70
2022-11-14T02:47:45.427Z,47.10
2022-11-14T02:50:36.203Z,50.60
2022-11-14T02:53:28.758Z,50.90
2022-11-14T02:56:19.189Z,48.50
2022-11-14T03:01:58.890Z,50.40
2022-11-14T03:04:47.537Z,39.10
2022-11-14T03:07:35.710Z,49.80
2022-11-14T03:10:26.188Z,54.30
2022-11-14T03:13:17.335Z,59.90
2022-11-14T03:16:11.648Z,52.10
2022-11-14T03:19:02.216Z,52.90
2022-11-14T03:21:52.224Z,49.50
2022-11-14T03:24:42.684Z,52.10
2022-11-14T03:27:32.662Z,51.50
2022-11-14T03:30:22.195Z,54.80
2022-11-14T03:33:14.630Z,52.50
2022-11-14T03:36:06.166Z,53.70
2022-11-14T03:38:57.201Z,56.80
2022-11-14T03:41:48.586Z,46.30
2022-11-14T03:44:39.837Z,49.80
2022-11-14T03:47:28.897Z,48.10
2022-11-14T03:50:20.030Z,51.30
2022-11-14T03:53:10.202Z,47.20
2022-11-14T03:56:01.542Z,47.50
2022-11-14T03:58:52.538Z,51.40
2022-11-14T04:01:43.351Z,54.40
2022-11-14T04:04:33.719Z,52.30
2022-11-14T04:07:23.584Z,49.60
2022-11-14T04:10:14.664Z,50.60
2022-11-14T04:13:06.782Z,49.80
2022-11-14T04:15:56.743Z,45.90
2022-11-14T04:18:46.834Z,47.90
2022-11-14T04:21:34.932Z,53.30
2022-11-14T04:24:24.140Z,53.00
2022-11-14T04:27:15.354Z,56.40
2022-11-14T04:30:08.759Z,53.40
2022-11-14T04:32:59.096Z,53.00
2022-11-14T04:35:50.092Z,47.60
2022-11-14T04:38:39.742Z,45.40
2022-11-14T04:41:29.922Z,50.30
2022-11-14T04:44:20.672Z,59.10
2022-11-14T04:47:12.636Z,50.90
2022-11-14T04:50:03.302Z,50.00
2022-11-14T04:52:55.118Z,50.20
2022-11-14T04:58:38.105Z,45.50
2022-11-14T05:01:27.867Z,46.40
2022-11-14T05:04:17.863Z,47.90
2022-11-14T05:07:07.069Z,40.50
2022-11-14T05:10:00.583Z,38.60
2022-11-14T05:12:50.514Z,42.40
2022-11-14T05:15:41.540Z,45.10
2022-11-14T05:18:32.103Z,50.20
2022-11-14T05:21:24.415Z,47.60
2022-11-14T05:24:15.072Z,42.90
2022-11-14T05:29:53.052Z,41.60
2022-11-14T05:32:46.137Z,39.90
2022-11-14T05:35:35.056Z,43.40
2022-11-14T05:38:25.614Z,45.90
2022-11-14T05:41:18.566Z,46.30
2022-11-14T05:44:12.067Z,48.10
2022-11-14T05:47:01.127Z,50.40
2022-11-14T05:49:49.414Z,38.80
2022-11-14T05:52:36.995Z,49.80
2022-11-14T05:55:25.328Z,40.30
2022-11-14T05:58:13.017Z,41.40
2022-11-14T06:01:15.519Z,45.90
2022-11-14T06:04:06.811Z,41.10
2022-11-14T06:06:54.690Z,48.90
2022-11-14T06:09:42.332Z,45.50
2022-11-14T06:12:32.618Z,45.10
2022-11-14T06:15:19.812Z,46.90
2022-11-14T06:18:07.531Z,45.80
2022-11-14T06:20:55.137Z,40.70
2022-11-14T06:23:44.130Z,47.40
2022-11-14T06:26:33.240Z,46.40
2022-11-14T06:29:20.734Z,51.10
2022-11-14T06:32:08.402Z,53.50
2022-11-14T06:34:56.499Z,49.40
2022-11-14T06:37:43.993Z,46.60
2022-11-14T06:40:31.828Z,38.70
2022-11-14T06:43:19.427Z,45.00
2022-11-14T06:46:09.288Z,41.80
2022-11-14T06:48:56.890Z,42.80
2022-11-14T06:51:45.241Z,47.30
2022-11-14T06:54:32.596Z,51.30
2022-11-14T06:57:19.882Z,58.20
2022-11-14T07:00:08.171Z,46.30
2022-11-14T07:02:56.017Z,50.20
2022-11-14T07:05:43.315Z,49.10
2022-11-14T07:08:32.171Z,50.00
2022-11-14T07:11:26.546Z,60.30
2022-11-14T07:14:14.167Z,72.20
2022-11-14T07:17:01.493Z,67.30
2022-11-14T07:19:49.348Z,75.60
2022-11-14T07:22:38.046Z,71.00
2022-11-14T07:25:25.795Z,67.60
2022-11-14T07:28:13.259Z,54.30
2022-11-14T07:31:04.149Z,51.70
2022-11-14T07:33:51.436Z,46.40
2022-11-14T07:36:38.940Z,40.00
2022-11-14T07:39:26.046Z,45.80
2022-11-14T07:42:14.462Z,56.90
2022-11-14T07:45:01.843Z,45.70
2022-11-14T07:47:49.469Z,58.70
2022-11-14T07:50:36.773Z,48.50
2022-11-14T07:53:25.022Z,49.10
2022-11-14T07:56:13.336Z,49.20
2022-11-14T07:59:01.101Z,56.50
2022-11-14T08:01:48.507Z,54.60
2022-11-14T08:04:36.369Z,49.90
2022-11-14T08:07:23.793Z,55.00
2022-11-14T08:10:14.657Z,77.00
2022-11-14T08:13:30.416Z,65.50
2022-11-14T08:16:14.305Z,65.20
2022-11-14T08:19:01.874Z,59.40
2022-11-14T08:21:49.811Z,55.00
2022-11-14T08:24:37.527Z,50.30
2022-11-14T08:27:26.383Z,54.40
2022-11-14T08:30:14.040Z,57.30
2022-11-14T08:33:06.361Z,51.80
2022-11-14T08:35:54.194Z,48.60
2022-11-14T08:38:41.974Z,39.90
2022-11-14T08:41:29.268Z,44.70
2022-11-14T08:44:16.929Z,46.70
2022-11-14T08:47:04.621Z,41.10
2022-11-14T08:49:52.319Z,55.20
2022-11-14T08:52:40.510Z,45.60
2022-11-14T08:55:28.836Z,59.80
2022-11-14T08:58:16.913Z,50.70
2022-11-14T09:01:07.340Z,66.00
2022-11-14T09:03:59.612Z,57.90
2022-11-14T09:06:48.211Z,56.90
2022-11-14T09:09:35.453Z,46.60
2022-11-14T09:12:23.560Z,64.60
2022-11-14T09:15:11.047Z,62.10
2022-11-14T09:17:59.316Z,63.80
2022-11-14T09:20:46.856Z,62.20
2022-11-14T09:23:35.579Z,66.30
2022-11-14T09:26:23.112Z,62.80
2022-11-14T09:29:11.068Z,56.50
2022-11-14T09:31:59.902Z,73.80
2022-11-14T09:34:48.543Z,59.10
2022-11-14T09:37:44.208Z,63.70
2022-11-14T09:41:44.967Z,56.90
2022-11-14T09:48:43.423Z,53.10
2022-11-14T09:52:22.759Z,67.70
2022-11-14T09:55:23.711Z,99.90
2022-11-14T09:58:20.707Z,102.30
2022-11-14T10:01:17.932Z,58.60
2022-11-14T10:04:35.075Z,43.80
2022-11-14T10:08:09.631Z,60.30
2022-11-14T10:11:29.348Z,48.40
2022-11-14T10:14:27.224Z,51.70
2022-11-14T10:17:47.930Z,56.50
2022-11-14T10:20:49.136Z,58.70
2022-11-14T10:24:04.000Z,55.10
2022-11-14T10:27:03.309Z,51.80
2022-11-14T10:29:59.075Z,49.80
2022-11-14T10:33:04.113Z,51.90
2022-11-14T10:36:01.006Z,58.30
2022-11-14T10:38:55.203Z,61.60
2022-11-14T10:41:56.676Z,63.70
2022-11-14T10:45:13.483Z,64.60
2022-11-14T10:48:24.250Z,65.20
2022-11-14T10:51:38.008Z,62.10
2022-11-14T10:54:33.199Z,62.60
2022-11-14T10:57:22.920Z,60.10
2022-11-14T11:00:23.221Z,56.50
2022-11-14T11:03:11.510Z,59.60
2022-11-14T11:05:58.794Z,51.60
2022-11-14T11:09:04.650Z,56.80
2022-11-14T11:12:02.093Z,62.80
2022-11-14T11:15:09.189Z,101.90
2022-11-14T11:18:02.507Z,54.30
2022-11-14T11:21:03.781Z,58.30
2022-11-14T11:23:55.580Z,71.40
2022-11-14T11:26:43.895Z,58.40
2022-11-14T11:29:31.347Z,66.80
2022-11-14T11:32:26.800Z,66.60
2022-11-14T11:35:17.046Z,57.70
2022-11-14T11:38:05.730Z,52.70
2022-11-14T11:40:58.337Z,59.80
2022-11-14T11:43:57.035Z,52.60
2022-11-14T11:46:54.275Z,49.40
2022-11-14T11:49:54.374Z,52.00
2022-11-14T11:53:30.459Z,53.80
2022-11-14T11:56:25.907Z,73.60
2022-11-14T11:59:26.243Z,56.40
2022-11-14T12:02:29.169Z,69.80
2022-11-14T12:05:44.950Z,55.30
2022-11-14T12:08:47.472Z,56.10
2022-11-14T12:11:38.148Z,60.00
2022-11-14T12:14:38.930Z,53.50
2022-11-14T12:17:35.776Z,47.50
2022-11-14T12:20:51.964Z,51.00
2022-11-14T12:24:06.772Z,47.20
2022-11-14T12:27:16.768Z,44.00
2022-11-14T12:30:25.750Z,39.70
2022-11-14T12:33:31.804Z,29.80
2022-11-14T12:36:19.547Z,32.10
2022-11-14T12:39:21.300Z,29.90
2022-11-14T12:42:15.861Z,25.50
2022-11-14T12:45:03.865Z,30.60
2022-11-14T12:48:31.674Z,28.90
2022-11-14T12:51:25.763Z,29.60
2022-11-14T12:54:46.327Z,26.00
2022-11-14T13:01:02.699Z,28.20
2022-11-14T13:04:24.191Z,28.40
2022-11-14T13:07:36.539Z,27.70
2022-11-14T13:10:42.065Z,29.10
2022-11-14T13:13:48.236Z,33.80
2022-11-14T13:16:54.236Z,55.30
2022-11-14T13:20:07.228Z,46.10
2022-11-14T13:22:55.333Z,36.40
2022-11-14T13:25:44.733Z,35.00
2022-11-14T13:28:51.693Z,38.60
2022-11-14T13:31:48.055Z,53.20
2022-11-14T13:35:00.159Z,34.30
2022-11-14T13:38:03.617Z,33.80
2022-11-14T13:41:08.442Z,32.70
2022-11-14T13:43:56.264Z,31.90
2022-11-14T13:46:46.628Z,30.90
2022-11-14T13:50:01.745Z,47.90
2022-11-14T13:52:49.391Z,41.60
2022-11-14T13:55:49.781Z,37.50
2022-11-14T13:58:54.821Z,34.10
2022-11-14T14:02:09.976Z,32.30
2022-11-14T14:05:28.685Z,35.80
2022-11-14T14:08:22.020Z,35.40
2022-11-14T14:11:10.508Z,35.80
2022-11-14T14:14:01.307Z,37.60
2022-11-14T14:16:58.566Z,38.90
2022-11-14T14:20:10.064Z,28.50
2022-11-14T14:23:10.615Z,27.50
2022-11-14T14:29:16.641Z,27.00
2022-11-14T14:32:16.154Z,26.40
2022-11-14T14:35:23.357Z,36.70
2022-11-14T14:38:23.433Z,41.50
2022-11-14T14:41:14.736Z,59.00
2022-11-14T14:44:02.984Z,47.40
2022-11-14T14:46:50.753Z,47.40
2022-11-14T14:49:39.807Z,67.50
2022-11-14T14:52:34.332Z,48.20
2022-11-14T14:55:29.050Z,58.00
2022-11-14T14:58:38.642Z,41.30
2022-11-14T15:01:34.740Z,43.90
2022-11-14T15:04:26.619Z,35.10
2022-11-14T15:07:25.492Z,41.00
2022-11-14T15:10:34.092Z,49.50
2022-11-14T15:13:24.018Z,44.90
2022-11-14T15:16:12.563Z,41.90
2022-11-14T15:19:01.344Z,47.40
2022-11-14T15:22:18.214Z,68.10
2022-11-14T15:25:11.593Z,54.90
2022-11-14T15:28:00.569Z,47.20
2022-11-14T15:31:02.191Z,66.20
2022-11-14T15:34:44.996Z,54.80
2022-11-14T15:37:33.537Z,50.20
2022-11-14T15:40:23.449Z,61.50
2022-11-14T15:43:45.649Z,45.50
2022-11-14T15:46:42.224Z,52.20
2022-11-14T15:49:30.101Z,65.40
2022-11-14T15:52:25.030Z,69.80
2022-11-14T15:55:21.039Z,83.90
2022-11-14T15:58:27.675Z,132.30
2022-11-14T16:01:23.232Z,113.50
2022-11-14T16:04:18.986Z,89.40
2022-11-14T16:07:06.991Z,80.60
2022-11-14T16:09:55.642Z,104.80
2022-11-14T16:12:45.710Z,114.10
2022-11-14T16:15:35.861Z,115.90
2022-11-14T16:18:23.516Z,125.40
2022-11-14T16:21:16.657Z,197.50
2022-11-14T16:24:05.058Z,247.40
2022-11-14T16:26:52.782Z,269.20
2022-11-14T16:29:40.143Z,257.20
2022-11-14T16:32:28.692Z,289.80
2022-11-14T16:35:18.977Z,275.30
2022-11-14T16:40:53.486Z,276.50
2022-11-14T16:43:41.699Z,276.40
2022-11-14T16:46:29.496Z,290.00
2022-11-14T16:49:19.848Z,395.20
2022-11-14T16:52:09.271Z,349.20
2022-11-14T16:54:57.196Z,365.60
2022-11-14T16:57:44.517Z,333.30
2022-11-14T17:00:31.894Z,272.10
2022-11-14T17:03:19.587Z,212.90
2022-11-14T17:06:12.468Z,160.60
2022-11-14T17:09:01.219Z,168.60
2022-11-14T17:11:49.089Z,152.10
2022-11-14T17:14:36.622Z,118.50
2022-11-14T17:17:24.607Z,123.00
2022-11-14T17:20:12.122Z,129.40
2022-11-14T17:22:59.526Z,169.80
2022-11-14T17:25:48.182Z,177.20
2022-11-14T17:28:35.855Z,132.70
2022-11-14T17:31:24.088Z,174.40
2022-11-14T17:34:11.959Z,151.40
2022-11-14T17:36:59.778Z,228.10
2022-11-14T17:39:47.519Z,179.40
2022-11-14T17:42:34.928Z,191.30
2022-11-14T17:45:22.735Z,229.00
2022-11-14T17:48:10.114Z,181.90
2022-11-14T17:51:07.017Z,208.40
2022-11-14T17:53:55.068Z,213.70
2022-11-14T17:56:48.499Z,290.50
2022-11-14T17:59:39.396Z,141.30
2022-11-14T18:02:41.052Z,123.90
2022-11-14T18:05:46.661Z,208.90
2022-11-14T18:08:57.035Z,253.00
2022-11-14T18:12:11.081Z,219.20
2022-11-14T18:15:27.748Z,261.30
2022-11-14T18:18:37.872Z,120.80
2022-11-14T18:21:53.205Z,51.20
2022-11-14T18:24:58.021Z,56.40
2022-11-14T18:28:12.410Z,49.00
2022-11-14T18:31:19.821Z,41.30
2022-11-14T18:34:27.355Z,63.90
2022-11-14T18:37:38.651Z,69.10
2022-11-14T18:40:58.562Z,76.80
2022-11-14T18:44:16.482Z,81.30
2022-11-14T18:47:04.533Z,77.30
2022-11-14T18:50:13.179Z,64.10
2022-11-14T18:53:19.266Z,63.00
2022-11-14T18:56:09.633Z,52.20
2022-11-14T18:58:58.242Z,58.70
2022-11-14T19:01:46.316Z,60.00
2022-11-14T19:04:35.514Z,44.90
2022-11-14T19:07:24.013Z,46.20
2022-11-14T19:10:12.089Z,45.70
2022-11-14T19:13:00.202Z,36.00
2022-11-14T19:15:47.856Z,38.40
2022-11-14T19:18:35.213Z,39.50
2022-11-14T19:21:23.132Z,39.00
2022-11-14T19:24:10.660Z,38.70
2022-11-14T19:26:58.753Z,47.70
2022-11-14T19:29:46.336Z,55.80
2022-11-14T19:32:34.697Z,62.10
2022-11-14T19:35:22.239Z,50.30
2022-11-14T19:38:09.814Z,45.70
2022-11-14T19:41:02.078Z,56.50
2022-11-14T19:43:51.992Z,62.10
2022-11-14T19:46:43.025Z,55.40
2022-11-14T19:49:35.046Z,63.20
2022-11-14T19:52:24.692Z,58.40
2022-11-14T19:55:12.524Z,41.40
2022-11-14T19:57:59.902Z,38.80
2022-11-14T20:00:47.600Z,40.10
2022-11-14T20:03:36.043Z,40.40
2022-11-14T20:06:35.056Z,33.00
2022-11-14T20:09:23.022Z,35.20
2022-11-14T20:12:10.901Z,29.90
2022-11-14T20:14:58.436Z,30.00
2022-11-14T20:17:45.885Z,34.10
2022-11-14T20:20:34.831Z,38.20
2022-11-14T20:23:23.053Z,33.60
2022-11-14T20:26:12.234Z,30.50
2022-11-14T20:29:00.256Z,32.40
2022-11-14T20:31:48.024Z,34.20
2022-11-14T20:34:36.096Z,37.20
2022-11-14T20:37:23.347Z,45.30
2022-11-14T20:40:11.927Z,45.30
2022-11-14T20:43:00.150Z,33.40
2022-11-14T20:46:02.937Z,36.30
2022-11-14T20:48:51.214Z,44.80
2022-11-14T20:51:39.252Z,42.90
2022-11-14T20:54:27.718Z,43.40
2022-11-14T20:57:15.257Z,31.40
2022-11-14T21:00:04.234Z,32.80
2022-11-14T21:02:51.603Z,32.40
2022-11-14T21:05:40.280Z,32.80
2022-11-14T21:08:29.272Z,29.80
2022-11-14T21:11:18.655Z,31.50
2022-11-14T21:14:06.613Z,28.30
2022-11-14T21:16:54.076Z,29.80
2022-11-14T21:19:41.983Z,29.60
2022-11-14T21:22:29.741Z,27.70
2022-11-14T21:25:17.358Z,33.20
2022-11-14T21:28:05.111Z,35.10
2022-11-14T21:30:53.111Z,35.90
2022-11-14T21:33:40.503Z,27.00
2022-11-14T21:36:46.251Z,35.60
2022-11-14T21:39:34.025Z,34.20
2022-11-14T21:42:21.299Z,38.80
2022-11-14T21:45:09.856Z,35.20
2022-11-14T21:47:57.674Z,32.60
2022-11-14T21:50:45.052Z,33.00
2022-11-14T21:53:34.260Z,39.00
2022-11-14T21:56:23.537Z,33.50
2022-11-14T21:59:21.652Z,36.30
2022-11-14T22:02:31.860Z,34.30
2022-11-14T22:05:19.384Z,35.50
2022-11-14T22:08:06.765Z,40.00
2022-11-14T22:11:00.814Z,44.50
2022-11-14T22:13:49.446Z,39.80
2022-11-14T22:16:37.296Z,36.00
2022-11-14T22:19:25.158Z,40.40
2022-11-14T22:22:13.244Z,34.60
2022-11-14T22:25:01.137Z,62.50
2022-11-14T22:27:48.583Z,108.60
2022-11-14T22:30:35.975Z,46.10
2022-11-14T22:33:23.404Z,35.80
2022-11-14T22:36:22.901Z,33.80
2022-11-14T22:39:11.216Z,31.60
2022-11-14T22:41:58.783Z,33.50
2022-11-14T22:44:46.592Z,39.40
2022-11-14T22:47:33.734Z,30.40
2022-11-14T22:50:21.707Z,65.30
2022-11-14T22:53:09.727Z,42.60
2022-11-14T22:55:58.353Z,37.70
2022-11-14T22:58:46.623Z,38.20
2022-11-14T23:01:33.907Z,38.10
2022-11-14T23:04:21.548Z,45.20
2022-11-14T23:07:09.285Z,68.70
2022-11-14T23:09:56.940Z,64.90
2022-11-14T23:12:44.975Z,54.20
2022-11-14T23:15:50.959Z,54.60
2022-11-14T23:18:38.627Z,60.40
2022-11-14T23:21:28.976Z,85.50
2022-11-14T23:24:16.351Z,78.80
2022-11-14T23:27:04.481Z,61.60
2022-11-14T23:29:52.118Z,89.20
2022-11-14T23:32:40.387Z,79.40
2022-11-14T23:35:28.084Z,71.60
2022-11-14T23:38:15.916Z,57.80
2022-11-14T23:41:03.476Z,68.30
2022-11-14T23:43:51.605Z,65.30
2022-11-14T23:46:38.807Z,56.60
2022-11-14T23:49:26.967Z,44.60
2022-11-14T23:52:14.229Z,46.10
2022-11-14T23:55:03.317Z,43.90
2022-11-14T23:57:53.740Z,51.90
